Time;durP1;ratioP1;P1;durP2;ratioP2;P2;SDS_P1;SDS_P2;PMS_P1;PMS_P2;Temp;Humidity;BMP_temperature;BMP_pressure;BME280_temperature;BME280_humidity;BME280_pressure;Samples;Min_cycle;Max_cycle;Signal;HPM_P1;HPM_P2
2024/03/09 00:06:23;;;;;;;38.6;22.3;;;;;;;-1.71;88.71;98816.666666667;;;;
2024/03/09 00:16:23;;;;;;;38.6;22.3;;;;;;;-1.71;88.47;98815;;;;
2024/03/09 00:26:23;;;;;;;41.2;22.3;;;;;;;-1.83;87.81;98806.666666667;;;;
2024/03/09 00:37:23;;;;;;;41.2;22.3;;;;;;;-1.95;87.48;98806.666666667;;;;
2024/03/09 00:48:23;;;;;;;36.9;20.2;;;;;;;-2.02;87.34;98805;;;;
2024/03/09 00:58:23;;;;;;;36.9;20.2;;;;;;;-2.11;87.1;98795;;;;
2024/03/09 01:09:23;;;;;;;36.9;20.2;;;;;;;-2.24;87.45;98785;;;;
2024/03/09 01:19:24;;;;;;;42.4;23.1;;;;;;;-2.32;87.91;98768.333333333;;;;
2024/03/09 01:29:23;;;;;;;42.4;23.1;;;;;;;-2.32;87.59;98763.333333333;;;;
2024/03/09 01:40:23;;;;;;;42.4;23.1;;;;;;;-2.38;87.49;98750;;;;
2024/03/09 01:50:23;;;;;;;33.5;19;;;;;;;-2.39;87.86;98745;;;;
2024/03/09 02:01:24;;;;;;;33.5;19;;;;;;;-2.42;87.31;98745;;;;
2024/03/09 02:11:23;;;;;;;33.5;19;;;;;;;-2.55;87.9;98738.333333333;;;;
2024/03/09 02:22:25;;;;;;;39;21.7;;;;;;;-2.54;88.25;98741.666666667;;;;
2024/03/09 02:32:24;;;;;;;39;21.7;;;;;;;-2.53;88.01;98738.333333333;;;;
2024/03/09 02:42:23;;;;;;;39;21.7;;;;;;;-2.65;87.95;98741.666666667;;;;
2024/03/09 02:53:23;;;;;;;37;20.7;;;;;;;-2.65;87.76;98730;;;;
2024/03/09 03:03:59;;;;;;;37;20.7;;;;;;;-2.69;87.67;98721.666666667;;;;
2024/03/09 03:13:23;;;;;;;37;20.7;;;;;;;-2.78;87.53;98718.333333333;;;;
2024/03/09 03:24:24;;;;;;;41.4;22.7;;;;;;;-2.8;87.62;98706.666666667;;;;
2024/03/09 03:34:25;;;;;;;41.4;22.7;;;;;;;-2.84;87.71;98695;;;;
2024/03/09 03:45:23;;;;;;;41.4;22.7;;;;;;;-2.87;87.4;98700;;;;
2024/03/09 03:55:24;;;;;;;38.2;20.4;;;;;;;-2.9;87.77;98700;;;;
2024/03/09 04:05:24;;;;;;;38.2;20.4;;;;;;;-2.95;88.95;98698.333333333;;;;
2024/03/09 04:15:23;;;;;;;38.2;20.4;;;;;;;-2.83;90.05;98696.666666667;;;;
2024/03/09 04:26:23;;;;;;;39;25.4;;;;;;;-2.64;90.61;98708.333333333;;;;
2024/03/09 04:37:25;;;;;;;39;25.4;;;;;;;-2.48;90.41;98705;;;;
2024/03/09 04:47:23;;;;;;;39;25.4;;;;;;;-2.35;90.07;98690;;;;
2024/03/09 04:58:23;;;;;;;37.3;21.5;;;;;;;-2.42;89.96;98700;;;;
2024/03/09 05:08:23;;;;;;;37.3;21.5;;;;;;;-2.43;90.11;98698.333333333;;;;
2024/03/09 05:19:23;;;;;;;38.3;19.4;;;;;;;-2.35;90.72;98698.333333333;;;;
2024/03/09 05:30:24;;;;;;;38.3;19.4;;;;;;;-2.27;90.54;98688.333333333;;;;
2024/03/09 05:41:23;;;;;;;38.3;19.4;;;;;;;-2.14;90.16;98690;;;;
2024/03/09 05:51:24;;;;;;;30.4;18.3;;;;;;;-2;90.22;98696.666666667;;;;
2024/03/09 06:01:26;;;;;;;30.4;18.3;;;;;;;-1.94;89.71;98696.666666667;;;;
2024/03/09 06:11:23;;;;;;;30.4;18.3;;;;;;;-1.85;90.45;98705;;;;
2024/03/09 06:22:23;;;;;;;28.4;16.2;;;;;;;-1.58;90.04;98688.333333333;;;;
2024/03/09 06:33:23;;;;;;;28.4;16.2;;;;;;;-1.36;89.39;98693.333333333;;;;
2024/03/09 06:43:23;;;;;;;28.4;16.2;;;;;;;-1.4;88.63;98690;;;;
2024/03/09 06:54:23;;;;;;;31.3;17.5;;;;;;;-0.97;88.75;98681.666666667;;;;
2024/03/09 07:04:24;;;;;;;31.3;17.5;;;;;;;-0.59;88.34;98688.333333333;;;;
2024/03/09 07:15:25;;;;;;;31.3;17.5;;;;;;;-0.07;88.61;98710;;;;
2024/03/09 07:26:25;;;;;;;34.1;20.5;;;;;;;0.57;87.72;98700;;;;
2024/03/09 07:36:23;;;;;;;34.1;20.5;;;;;;;0.29;87.76;98711.666666667;;;;
2024/03/09 07:47:24;;;;;;;31.7;17.9;;;;;;;0.81;86.94;98711.666666667;;;;
2024/03/09 07:57:23;;;;;;;31.7;17.9;;;;;;;1.45;85.77;98715;;;;
2024/03/09 08:08:23;;;;;;;31.7;17.9;;;;;;;1.4;85.02;98710;;;;
2024/03/09 08:18:23;;;;;;;38.9;22.3;;;;;;;2.09;84.2;98698.333333333;;;;
2024/03/09 08:29:23;;;;;;;38.9;22.3;;;;;;;1.76;84;98691.666666667;;;;
2024/03/09 08:39:25;;;;;;;38.9;22.3;;;;;;;1.81;83.96;98685;;;;
2024/03/09 08:49:24;;;;;;;39;22.7;;;;;;;2.54;83.23;98680;;;;
2024/03/09 08:59:23;;;;;;;39;22.7;;;;;;;2.54;84.39;98665;;;;
2024/03/09 09:10:25;;;;;;;39;22.7;;;;;;;2.98;82.83;98662.5;;;;
2024/03/09 09:20:24;;;;;;;40.3;23.7;;;;;;;3.65;81.79;98660;;;;
2024/03/09 09:31:23;;;;;;;40.3;23.7;;;;;;;4.39;80.1;98646.666666667;;;;
2024/03/09 09:41:23;;;;;;;40.3;23.7;;;;;;;4.01;80.13;98641.666666667;;;;
2024/03/09 09:52:23;;;;;;;36.2;22.1;;;;;;;4.16;80.87;98641.666666667;;;;
2024/03/09 10:03:23;;;;;;;36.2;22.1;;;;;;;4.29;81.59;98631.666666667;;;;
2024/03/09 10:13:24;;;;;;;36.2;22.1;;;;;;;3.94;83.3;98631.666666667;;;;
2024/03/09 10:24:23;;;;;;;33.7;19.4;;;;;;;4.47;80.82;98623.333333333;;;;
2024/03/09 10:35:23;;;;;;;33.7;19.4;;;;;;;4.68;80.08;98621.666666667;;;;
2024/03/09 10:46:24;;;;;;;33.7;19.4;;;;;;;4.78;80;98596.666666667;;;;
2024/03/09 10:57:23;;;;;;;40.5;22.4;;;;;;;4.71;81.04;98575;;;;
2024/03/09 11:07:23;;;;;;;40.5;22.4;;;;;;;5.11;80.11;98563.333333333;;;;
2024/03/09 11:17:23;;;;;;;28.5;18.8;;;;;;;5.33;79.72;98551.666666667;;;;
2024/03/09 11:28:23;;;;;;;28.5;18.8;;;;;;;5.82;78.63;98528.333333333;;;;
2024/03/09 11:39:28;;;;;;;28.5;18.8;;;;;;;6.32;78.65;98516.666666667;;;;
2024/03/09 11:49:24;;;;;;;32.3;18.8;;;;;;;6.56;77.62;98508.333333333;;;;
2024/03/09 12:00:23;;;;;;;32.3;18.8;;;;;;;6.99;76.58;98498.333333333;;;;
2024/03/09 12:11:23;;;;;;;32.3;18.8;;;;;;;7.58;75.79;98476.666666667;;;;
2024/03/09 12:21:25;;;;;;;29.2;18.7;;;;;;;7.84;74.76;98448.333333333;;;;
2024/03/09 12:31:24;;;;;;;29.2;18.7;;;;;;;8.14;75.08;98443.333333333;;;;
2024/03/09 12:42:25;;;;;;;29.2;18.7;;;;;;;8.35;74.25;98450;;;;
2024/03/09 12:52:23;;;;;;;30.3;19.5;;;;;;;8.71;73.38;98436.666666667;;;;
2024/03/09 13:02:26;;;;;;;30.3;19.5;;;;;;;9.14;73.4;98411.666666667;;;;
2024/03/09 13:12:24;;;;;;;30.3;19.5;;;;;;;9.57;72.67;98403.333333333;;;;
2024/03/09 13:23:23;;;;;;;24.1;19.4;;;;;;;9.42;72.86;98393.333333333;;;;
2024/03/09 13:33:23;;;;;;;24.1;19.4;;;;;;;9.53;73.07;98376.666666667;;;;
2024/03/09 13:44:24;;;;;;;24.1;19.4;;;;;;;9.74;73.46;98375;;;;
2024/03/09 13:54:23;;;;;;;26.1;20;;;;;;;9.96;72.6;98365;;;;
2024/03/09 14:04:23;;;;;;;26.1;20;;;;;;;10.25;72.28;98361.666666667;;;;
2024/03/09 14:15:24;;;;;;;26.1;20;;;;;;;10.86;70.73;98343.333333333;;;;
2024/03/09 14:26:24;;;;;;;31;23.7;;;;;;;11.02;69.85;98346.666666667;;;;
2024/03/09 14:37:23;;;;;;;31;23.7;;;;;;;11.2;68.15;98340;;;;
2024/03/09 14:48:27;;;;;;;20.1;15.1;;;;;;;11.53;59.33;98333.333333333;;;;
2024/03/09 14:58:23;;;;;;;20.1;15.1;;;;;;;11.58;55.76;98335;;;;
2024/03/09 15:09:25;;;;;;;20.1;15.1;;;;;;;11.73;54.97;98321.666666667;;;;
2024/03/09 15:19:24;;;;;;;10.3;6.6;;;;;;;11.53;55.03;98316.666666667;;;;
2024/03/09 15:29:23;;;;;;;10.3;6.6;;;;;;;11.19;54.69;98310;;;;
2024/03/09 15:39:26;;;;;;;10.3;6.6;;;;;;;10.77;56.76;98315;;;;
2024/03/09 15:50:25;;;;;;;10.4;7.5;;;;;;;10.18;58.25;98306.666666667;;;;
2024/03/09 16:00:23;;;;;;;10.4;7.5;;;;;;;9.83;59.62;98301.666666667;;;;
2024/03/09 16:11:25;;;;;;;10.4;7.5;;;;;;;9.52;61.24;98301.666666667;;;;
2024/03/09 16:21:24;;;;;;;13.7;8;;;;;;;9.33;62.1;98295;;;;
2024/03/09 16:32:23;;;;;;;13.7;8;;;;;;;9.12;63.12;98283.333333333;;;;
2024/03/09 16:43:26;;;;;;;13.7;8;;;;;;;8.88;64.06;98280;;;;
2024/03/09 16:53:29;;;;;;;23;12.2;;;;;;;8.65;65.4;98268.333333333;;;;
2024/03/09 17:03:24;;;;;;;23;12.2;;;;;;;8.48;68.88;98263.333333333;;;;
2024/03/09 17:14:25;;;;;;;23;12.2;;;;;;;8.32;70.71;98270;;;;
2024/03/09 17:24:23;;;;;;;26;15.2;;;;;;;8.18;71.35;98263.333333333;;;;
2024/03/09 17:35:26;;;;;;;26;15.2;;;;;;;8.09;71.21;98265;;;;
2024/03/09 17:45:25;;;;;;;26;15.2;;;;;;;7.92;70.79;98265;;;;
2024/03/09 17:55:24;;;;;;;27.4;16.1;;;;;;;7.66;70.98;98275;;;;
2024/03/09 18:06:25;;;;;;;27.4;16.1;;;;;;;7.5;71.8;98283.333333333;;;;
2024/03/09 18:17:25;;;;;;;28.9;14.9;;;;;;;7.42;72.08;98273.333333333;;;;
2024/03/09 18:28:24;;;;;;;28.9;14.9;;;;;;;7.27;72.77;98242;;;;
2024/03/09 18:38:24;;;;;;;28.9;14.9;;;;;;;7.23;73.01;98238;;;;
2024/03/09 18:49:26;;;;;;;27.3;14.3;;;;;;;7.2;72.87;98232;;;;
2024/03/09 19:00:29;;;;;;;27.3;14.3;;;;;;;7.2;72.53;98268.333333333;;;;
2024/03/09 19:10:24;;;;;;;27.3;14.3;;;;;;;7.14;72.5;98271.666666667;;;;
2024/03/09 19:20:24;;;;;;;62;34.9;;;;;;;6.88;73.04;98273.333333333;;;;
2024/03/09 19:31:24;;;;;;;62;34.9;;;;;;;6.65;73.05;98265;;;;
2024/03/09 19:42:24;;;;;;;62;34.9;;;;;;;6.35;73.77;98265;;;;
2024/03/09 19:52:24;;;;;;;25.9;16.4;;;;;;;6.19;74.52;98265;;;;
2024/03/09 20:03:24;;;;;;;25.9;16.4;;;;;;;6.36;74.11;98260;;;;
2024/03/09 20:13:24;;;;;;;25.9;16.4;;;;;;;6.49;73.64;98260;;;;
2024/03/09 20:23:24;;;;;;;20.7;13.3;;;;;;;6.65;72.77;98253.333333333;;;;
2024/03/09 20:34:23;;;;;;;20.7;13.3;;;;;;;6.67;72.85;98251.666666667;;;;
2024/03/09 20:44:24;;;;;;;20.7;13.3;;;;;;;6.68;72.66;98256.666666667;;;;
2024/03/09 20:54:36;;;;;;;25.3;14.7;;;;;;;6.63;73.06;98255;;;;
2024/03/09 21:05:24;;;;;;;25.3;14.7;;;;;;;6.42;74.13;98240;;;;
2024/03/09 21:15:24;;;;;;;25.3;14.7;;;;;;;6.42;73.81;98238.333333333;;;;
2024/03/09 21:26:25;;;;;;;25;15.9;;;;;;;6.46;73.61;98236.666666667;;;;
2024/03/09 21:37:24;;;;;;;25;15.9;;;;;;;6.3;74.51;98215;;;;
2024/03/09 21:48:25;;;;;;;22.1;14.4;;;;;;;6.19;74.61;98210;;;;
2024/03/09 21:58:24;;;;;;;22.1;14.4;;;;;;;6.17;74.89;98218.333333333;;;;
2024/03/09 22:08:24;;;;;;;22.1;14.4;;;;;;;6.15;75.3;98228.333333333;;;;
2024/03/09 22:19:24;;;;;;;25;14.1;;;;;;;6.22;74.97;98236.666666667;;;;
2024/03/09 22:29:25;;;;;;;25;14.1;;;;;;;5.9;76.01;98240;;;;
2024/03/09 22:40:24;;;;;;;25;14.1;;;;;;;5.76;76.59;98233.333333333;;;;
2024/03/09 22:50:24;;;;;;;23.3;14.7;;;;;;;5.57;77.8;98225;;;;
2024/03/09 23:01:25;;;;;;;23.3;14.7;;;;;;;5.69;77.15;98221.666666667;;;;
2024/03/09 23:12:24;;;;;;;23.3;14.7;;;;;;;5.42;78.2;98210;;;;
2024/03/09 23:23:24;;;;;;;29.5;19.5;;;;;;;5.45;78.52;98201.666666667;;;;
2024/03/09 23:33:25;;;;;;;29.5;19.5;;;;;;;5.47;78.41;98195;;;;
2024/03/09 23:44:24;;;;;;;29.5;19.5;;;;;;;5.47;77.5;98190;;;;
2024/03/09 23:55:24;;;;;;;24.5;16;;;;;;;5.04;78.3;98180;;;;
